sensor_id;sensor_type;location;lat;lon;timestamp;pressure;altitude;pressure_sealevel;temperature;humidity
55550;BME280;41397;49.972;18.944;2023-03-25T00:02:15;100804.09;;;17.19;60.79
55550;BME280;41397;49.972;18.944;2023-03-25T00:05:19;100801.48;;;17.17;60.89
55550;BME280;41397;49.972;18.944;2023-03-25T00:08:22;100792.48;;;17.15;61.07
55550;BME280;41397;49.972;18.944;2023-03-25T00:11:25;100791.48;;;17.16;60.96
55550;BME280;41397;49.972;18.944;2023-03-25T00:14:28;100787.82;;;17.16;60.97
55550;BME280;41397;49.972;18.944;2023-03-25T00:17:32;100793.54;;;17.14;61.06
55550;BME280;41397;49.972;18.944;2023-03-25T00:20:38;100796.45;;;17.13;61.14
55550;BME280;41397;49.972;18.944;2023-03-25T00:23:49;100796.79;;;17.09;61.15
55550;BME280;41397;49.972;18.944;2023-03-25T00:26:51;100797.84;;;17.08;61.23
55550;BME280;41397;49.972;18.944;2023-03-25T00:29:54;100787.80;;;17.07;61.47
55550;BME280;41397;49.972;18.944;2023-03-25T00:32:58;100788.84;;;17.06;61.40
55550;BME280;41397;49.972;18.944;2023-03-25T00:36:03;100785.90;;;17.00;61.63
55550;BME280;41397;49.972;18.944;2023-03-25T00:39:05;100792.09;;;17.02;61.91
55550;BME280;41397;49.972;18.944;2023-03-25T00:42:17;100795.91;;;17.01;62.06
55550;BME280;41397;49.972;18.944;2023-03-25T00:45:32;100796.77;;;17.01;62.20
55550;BME280;41397;49.972;18.944;2023-03-25T00:48:34;100792.09;;;17.02;62.19
55550;BME280;41397;49.972;18.944;2023-03-25T00:51:37;100792.09;;;17.02;62.66
55550;BME280;41397;49.972;18.944;2023-03-25T00:54:39;100782.95;;;17.01;62.56
55550;BME280;41397;49.972;18.944;2023-03-25T00:57:40;100790.38;;;17.01;62.70
55550;BME280;41397;49.972;18.944;2023-03-25T01:00:41;100782.09;;;17.01;62.82
55550;BME280;41397;49.972;18.944;2023-03-25T01:03:43;100776.57;;;17.01;62.76
55550;BME280;41397;49.972;18.944;2023-03-25T01:06:44;100787.77;;;16.99;62.95
55550;BME280;41397;49.972;18.944;2023-03-25T01:09:47;100793.48;;;16.98;63.19
55550;BME280;41397;49.972;18.944;2023-03-25T01:12:49;100784.34;;;16.97;63.31
55550;BME280;41397;49.972;18.944;2023-03-25T01:15:50;100785.34;;;16.96;63.35
55550;BME280;41397;49.972;18.944;2023-03-25T01:18:53;100775.48;;;16.94;63.55
55550;BME280;41397;49.972;18.944;2023-03-25T01:21:55;100783.11;;;16.92;63.65
55550;BME280;41397;49.972;18.944;2023-03-25T01:24:56;100779.30;;;16.93;63.53
55550;BME280;41397;49.972;18.944;2023-03-25T01:27:58;100783.11;;;16.92;63.63
55550;BME280;41397;49.972;18.944;2023-03-25T01:31:04;100786.88;;;16.91;64.09
55550;BME280;41397;49.972;18.944;2023-03-25T01:34:06;100779.12;;;16.86;64.29
55550;BME280;41397;49.972;18.944;2023-03-25T01:37:08;100780.13;;;16.85;64.57
55550;BME280;41397;49.972;18.944;2023-03-25T01:40:18;100780.13;;;16.85;64.59
55550;BME280;41397;49.972;18.944;2023-03-25T01:43:20;100770.99;;;16.84;64.42
55550;BME280;41397;49.972;18.944;2023-03-25T01:46:22;100767.37;;;16.84;64.57
55550;BME280;41397;49.972;18.944;2023-03-25T01:49:35;100769.09;;;16.85;64.59
55550;BME280;41397;49.972;18.944;2023-03-25T01:52:45;100762.55;;;16.86;64.75
55550;BME280;41397;49.972;18.944;2023-03-25T01:55:48;100758.75;;;16.87;64.87
55550;BME280;41397;49.972;18.944;2023-03-25T01:58:54;100770.49;;;16.89;64.84
55550;BME280;41397;49.972;18.944;2023-03-25T02:01:59;100773.59;;;16.86;65.11
55550;BME280;41397;49.972;18.944;2023-03-25T02:05:09;100775.66;;;16.84;65.11
55550;BME280;41397;49.972;18.944;2023-03-25T02:08:12;100777.22;;;16.86;65.04
55550;BME280;41397;49.972;18.944;2023-03-25T02:11:15;100788.94;;;16.89;65.16
55550;BME280;41397;49.972;18.944;2023-03-25T02:14:21;100799.98;;;16.89;65.24
55550;BME280;41397;49.972;18.944;2023-03-25T02:17:49;100799.64;;;16.83;65.48
55550;BME280;41397;49.972;18.944;2023-03-25T02:24:23;100799.73;;;16.74;66.15
55550;BME280;41397;49.972;18.944;2023-03-25T02:40:30;100807.27;;;16.63;65.69
55550;BME280;41397;49.972;18.944;2023-03-25T02:46:55;100817.12;;;16.66;65.80
55550;BME280;41397;49.972;18.944;2023-03-25T02:50:05;100816.26;;;16.65;66.00
55550;BME280;41397;49.972;18.944;2023-03-25T02:53:16;100813.65;;;16.64;66.05
55550;BME280;41397;49.972;18.944;2023-03-25T02:56:23;100819.13;;;16.56;64.46
55550;BME280;41397;49.972;18.944;2023-03-25T02:59:28;100820.65;;;16.50;64.22
55550;BME280;41397;49.972;18.944;2023-03-25T03:02:37;100836.09;;;16.35;64.31
55550;BME280;41397;49.972;18.944;2023-03-25T03:05:47;100837.38;;;16.23;65.13
55550;BME280;41397;49.972;18.944;2023-03-25T03:34:51;100843.98;;;15.86;64.07
55550;BME280;41397;49.972;18.944;2023-03-25T03:38:01;100852.40;;;15.84;64.12
55550;BME280;41397;49.972;18.944;2023-03-25T03:41:20;100855.34;;;15.83;65.11
55550;BME280;41397;49.972;18.944;2023-03-25T03:44:29;100854.45;;;15.82;64.97
55550;BME280;41397;49.972;18.944;2023-03-25T03:47:37;100843.59;;;15.81;64.88
55550;BME280;41397;49.972;18.944;2023-03-25T03:50:48;100848.38;;;15.79;64.95
55550;BME280;41397;49.972;18.944;2023-03-25T03:53:57;100857.70;;;15.78;65.26
55550;BME280;41397;49.972;18.944;2023-03-25T03:57:02;100858.02;;;15.74;65.14
55550;BME280;41397;49.972;18.944;2023-03-25T04:00:17;100858.02;;;15.74;65.63
55550;BME280;41397;49.972;18.944;2023-03-25T04:03:29;100857.13;;;15.74;65.83
55550;BME280;41397;49.972;18.944;2023-03-25T04:06:46;100847.85;;;15.75;66.00
55550;BME280;41397;49.972;18.944;2023-03-25T04:09:56;100861.45;;;15.76;66.40
55550;BME280;41397;49.972;18.944;2023-03-25T04:13:04;100852.32;;;15.76;66.08
55550;BME280;41397;49.972;18.944;2023-03-25T04:16:08;100860.77;;;15.74;66.28
55550;BME280;41397;49.972;18.944;2023-03-25T04:19:10;100868.32;;;15.72;66.52
55550;BME280;41397;49.972;18.944;2023-03-25T04:22:19;100875.88;;;15.70;67.04
55550;BME280;41397;49.972;18.944;2023-03-25T04:25:21;100869.37;;;15.71;67.06
55550;BME280;41397;49.972;18.944;2023-03-25T04:28:25;100879.67;;;15.69;67.21
55550;BME280;41397;49.972;18.944;2023-03-25T04:31:28;100878.92;;;15.67;67.02
55550;BME280;41397;49.972;18.944;2023-03-25T04:34:33;100886.33;;;15.67;66.70
55550;BME280;41397;49.972;18.944;2023-03-25T04:37:34;100878.92;;;15.67;66.89
55550;BME280;41397;49.972;18.944;2023-03-25T04:40:37;100872.41;;;15.68;66.72
55550;BME280;41397;49.972;18.944;2023-03-25T04:43:40;100867.78;;;15.69;66.50
55550;BME280;41397;49.972;18.944;2023-03-25T04:46:45;100871.51;;;15.68;66.61
55550;BME280;41397;49.972;18.944;2023-03-25T04:49:51;100880.10;;;15.65;66.46
55550;BME280;41397;49.972;18.944;2023-03-25T04:52:53;100877.34;;;15.65;66.60
55550;BME280;41397;49.972;18.944;2023-03-25T04:55:57;100877.34;;;15.65;66.24
55550;BME280;41397;49.972;18.944;2023-03-25T04:59:00;100886.80;;;15.62;66.51
55550;BME280;41397;49.972;18.944;2023-03-25T05:02:02;100893.48;;;15.60;66.70
55550;BME280;41397;49.972;18.944;2023-03-25T05:05:07;100892.48;;;15.61;66.59
55550;BME280;41397;49.972;18.944;2023-03-25T05:08:09;100882.77;;;15.57;66.52
55550;BME280;41397;49.972;18.944;2023-03-25T05:11:11;100890.17;;;15.56;66.78
55550;BME280;41397;49.972;18.944;2023-03-25T05:14:20;100892.22;;;15.54;67.11
55550;BME280;41397;49.972;18.944;2023-03-25T05:17:25;100900.66;;;15.52;67.21
55550;BME280;41397;49.972;18.944;2023-03-25T05:20:29;100905.14;;;15.53;67.31
55550;BME280;41397;49.972;18.944;2023-03-25T05:23:34;100903.41;;;15.52;67.64
55550;BME280;41397;49.972;18.944;2023-03-25T05:26:37;100909.93;;;15.51;67.73
55550;BME280;41397;49.972;18.944;2023-03-25T05:29:39;100918.20;;;15.51;67.99
55550;BME280;41397;49.972;18.944;2023-03-25T05:32:44;100920.09;;;15.51;68.07
55550;BME280;41397;49.972;18.944;2023-03-25T05:35:52;100895.28;;;15.51;68.60
55550;BME280;41397;49.972;18.944;2023-03-25T05:38:54;100890.49;;;15.53;68.94
55550;BME280;41397;49.972;18.944;2023-03-25T05:45:28;100898.59;;;15.54;69.40
55550;BME280;41397;49.972;18.944;2023-03-25T05:48:31;100907.58;;;15.57;70.04
55550;BME280;41397;49.972;18.944;2023-03-25T05:51:34;100901.75;;;15.60;69.90
55550;BME280;41397;49.972;18.944;2023-03-25T05:54:38;100909.55;;;15.64;69.60
55550;BME280;41397;49.972;18.944;2023-03-25T05:57:42;100907.52;;;15.66;69.89
55550;BME280;41397;49.972;18.944;2023-03-25T06:00:43;100919.13;;;15.70;69.74
55550;BME280;41397;49.972;18.944;2023-03-25T06:03:53;100924.50;;;15.71;69.42
55550;BME280;41397;49.972;18.944;2023-03-25T06:06:58;100917.95;;;15.72;69.44
55550;BME280;41397;49.972;18.944;2023-03-25T06:10:05;100923.29;;;15.74;69.27
55550;BME280;41397;49.972;18.944;2023-03-25T06:16:31;100938.12;;;15.73;68.94
55550;BME280;41397;49.972;18.944;2023-03-25T06:19:35;100934.63;;;15.71;68.89
55550;BME280;41397;49.972;18.944;2023-03-25T06:22:40;100933.20;;;15.67;68.01
55550;BME280;41397;49.972;18.944;2023-03-25T06:25:45;100931.57;;;15.74;66.97
55550;BME280;41397;49.972;18.944;2023-03-25T06:28:47;100937.97;;;15.74;65.95
55550;BME280;41397;49.972;18.944;2023-03-25T06:31:49;100947.65;;;15.79;65.45
55550;BME280;41397;49.972;18.944;2023-03-25T06:34:50;100952.16;;;15.80;65.17
55550;BME280;41397;49.972;18.944;2023-03-25T06:37:52;100951.84;;;15.83;63.97
55550;BME280;41397;49.972;18.944;2023-03-25T06:40:53;100958.23;;;15.83;63.82
55550;BME280;41397;49.972;18.944;2023-03-25T06:43:55;100952.86;;;15.82;63.26
55550;BME280;41397;49.972;18.944;2023-03-25T06:46:56;100953.16;;;15.79;62.87
55550;BME280;41397;49.972;18.944;2023-03-25T06:49:57;100949.09;;;15.83;63.18
55550;BME280;41397;49.972;18.944;2023-03-25T06:52:59;100957.05;;;15.86;62.75
55550;BME280;41397;49.972;18.944;2023-03-25T06:56:03;100945.84;;;15.87;62.67
55550;BME280;41397;49.972;18.944;2023-03-25T06:59:08;100947.11;;;15.93;62.68
55550;BME280;41397;49.972;18.944;2023-03-25T07:02:12;100940.66;;;16.02;61.91
55550;BME280;41397;49.972;18.944;2023-03-25T07:05:14;100926.24;;;16.08;61.68
55550;BME280;41397;49.972;18.944;2023-03-25T07:08:16;100925.45;;;16.16;61.50
55550;BME280;41397;49.972;18.944;2023-03-25T07:11:25;100913.06;;;16.20;61.25
55550;BME280;41397;49.972;18.944;2023-03-25T07:14:29;100913.69;;;16.32;61.11
55550;BME280;41397;49.972;18.944;2023-03-25T07:17:30;100913.49;;;16.51;61.86
55550;BME280;41397;49.972;18.944;2023-03-25T07:20:32;100907.91;;;16.69;61.98
55550;BME280;41397;49.972;18.944;2023-03-25T07:23:33;100910.53;;;16.97;60.70
55550;BME280;41397;49.972;18.944;2023-03-25T07:26:36;100915.87;;;17.24;61.09
55550;BME280;41397;49.972;18.944;2023-03-25T07:29:38;100917.53;;;17.51;58.34
55550;BME280;41397;49.972;18.944;2023-03-25T07:32:40;100915.04;;;17.83;58.77
55550;BME280;41397;49.972;18.944;2023-03-25T07:35:41;100902.79;;;18.02;57.58
55550;BME280;41397;49.972;18.944;2023-03-25T07:38:44;100905.73;;;18.16;56.22
55550;BME280;41397;49.972;18.944;2023-03-25T07:41:46;100903.67;;;18.27;54.91
55550;BME280;41397;49.972;18.944;2023-03-25T07:44:47;100904.71;;;18.42;54.81
55550;BME280;41397;49.972;18.944;2023-03-25T07:47:49;100902.28;;;18.47;54.66
55550;BME280;41397;49.972;18.944;2023-03-25T07:54:18;100907.98;;;18.54;53.67
55550;BME280;41397;49.972;18.944;2023-03-25T07:57:29;100903.64;;;18.59;54.01
55550;BME280;41397;49.972;18.944;2023-03-25T08:00:30;100912.46;;;18.63;54.12
55550;BME280;41397;49.972;18.944;2023-03-25T08:03:32;100906.04;;;18.71;56.76
55550;BME280;41397;49.972;18.944;2023-03-25T08:06:34;100900.37;;;18.80;53.78
55550;BME280;41397;49.972;18.944;2023-03-25T08:09:37;100903.63;;;18.84;53.30
55550;BME280;41397;49.972;18.944;2023-03-25T08:12:38;100906.06;;;18.79;52.26
55550;BME280;41397;49.972;18.944;2023-03-25T08:15:41;100901.22;;;18.81;52.13
55550;BME280;41397;49.972;18.944;2023-03-25T08:18:43;100893.96;;;18.80;51.83
55550;BME280;41397;49.972;18.944;2023-03-25T08:21:45;100902.93;;;18.82;51.94
55550;BME280;41397;49.972;18.944;2023-03-25T08:24:46;100894.63;;;18.82;51.61
55550;BME280;41397;49.972;18.944;2023-03-25T08:27:48;100898.92;;;18.93;51.69
55550;BME280;41397;49.972;18.944;2023-03-25T08:30:52;100895.99;;;18.94;52.04
55550;BME280;41397;49.972;18.944;2023-03-25T08:33:54;100891.31;;;18.95;51.04
55550;BME280;41397;49.972;18.944;2023-03-25T08:36:56;100890.42;;;19.02;52.10
55550;BME280;41397;49.972;18.944;2023-03-25T08:39:57;100890.78;;;18.99;51.47
55550;BME280;41397;49.972;18.944;2023-03-25T08:42:59;100878.84;;;18.99;51.02
55550;BME280;41397;49.972;18.944;2023-03-25T08:46:01;100880.72;;;18.98;51.14
55550;BME280;41397;49.972;18.944;2023-03-25T08:49:03;100871.55;;;18.98;50.45
55550;BME280;41397;49.972;18.944;2023-03-25T08:52:06;100880.70;;;19.06;50.44
55550;BME280;41397;49.972;18.944;2023-03-25T08:55:10;100876.70;;;19.09;51.19
55550;BME280;41397;49.972;18.944;2023-03-25T08:58:11;100873.93;;;19.09;50.67
55550;BME280;41397;49.972;18.944;2023-03-25T09:01:12;100875.12;;;19.15;51.55
55550;BME280;41397;49.972;18.944;2023-03-25T09:04:14;100872.30;;;19.23;51.51
55550;BME280;41397;49.972;18.944;2023-03-25T09:07:16;100864.32;;;19.28;50.94
55550;BME280;41397;49.972;18.944;2023-03-25T09:10:19;100870.20;;;19.33;51.40
55550;BME280;41397;49.972;18.944;2023-03-25T09:13:21;100869.45;;;19.39;50.82
55550;BME280;41397;49.972;18.944;2023-03-25T09:16:22;100873.24;;;19.46;49.79
55550;BME280;41397;49.972;18.944;2023-03-25T09:19:24;100866.11;;;19.52;49.96
55550;BME280;41397;49.972;18.944;2023-03-25T09:22:26;100873.14;;;19.63;49.91
55550;BME280;41397;49.972;18.944;2023-03-25T09:25:27;100867.65;;;19.86;50.12
55550;BME280;41397;49.972;18.944;2023-03-25T09:28:30;100860.74;;;20.05;48.63
55550;BME280;41397;49.972;18.944;2023-03-25T09:31:31;100862.91;;;20.17;46.37
55550;BME280;41397;49.972;18.944;2023-03-25T09:34:34;100865.61;;;20.26;46.40
55550;BME280;41397;49.972;18.944;2023-03-25T09:37:36;100855.48;;;20.33;47.30
55550;BME280;41397;49.972;18.944;2023-03-25T09:40:43;100848.09;;;20.25;46.52
55550;BME280;41397;49.972;18.944;2023-03-25T09:43:58;100849.19;;;20.16;46.41
55550;BME280;41397;49.972;18.944;2023-03-25T09:47:02;100847.54;;;20.07;47.00
55550;BME280;41397;49.972;18.944;2023-03-25T09:50:09;100836.64;;;20.05;47.50
55550;BME280;41397;49.972;18.944;2023-03-25T09:53:24;100847.91;;;20.04;47.66
55550;BME280;41397;49.972;18.944;2023-03-25T09:56:30;100844.35;;;19.95;45.84
55550;BME280;41397;49.972;18.944;2023-03-25T10:03:02;100823.98;;;19.80;46.59
55550;BME280;41397;49.972;18.944;2023-03-25T10:09:33;100829.42;;;19.73;46.60
55550;BME280;41397;49.972;18.944;2023-03-25T10:15:55;100818.52;;;19.94;46.69
55550;BME280;41397;49.972;18.944;2023-03-25T10:22:18;100803.73;;;20.17;44.64
55550;BME280;41397;49.972;18.944;2023-03-25T10:25:27;100804.03;;;20.22;42.93
55550;BME280;41397;49.972;18.944;2023-03-25T10:28:42;100795.85;;;20.06;42.06
55550;BME280;41397;49.972;18.944;2023-03-25T10:31:55;100804.74;;;20.01;42.19
55550;BME280;41397;49.972;18.944;2023-03-25T10:34:52;100802.13;;;20.00;40.93
55550;BME280;41397;49.972;18.944;2023-03-25T10:38:09;100795.95;;;20.12;41.09
55550;BME280;41397;49.972;18.944;2023-03-25T10:44:26;100780.45;;;20.18;41.32
55550;BME280;41397;49.972;18.944;2023-03-25T10:47:36;100788.02;;;20.24;41.63
55550;BME280;41397;49.972;18.944;2023-03-25T10:50:40;100777.59;;;20.26;41.26
55550;BME280;41397;49.972;18.944;2023-03-25T10:53:47;100780.20;;;20.28;41.63
55550;BME280;41397;49.972;18.944;2023-03-25T10:56:55;100787.63;;;20.12;41.79
55550;BME280;41397;49.972;18.944;2023-03-25T11:00:08;100788.02;;;20.09;40.70
55550;BME280;41397;49.972;18.944;2023-03-25T11:03:26;100775.48;;;20.13;41.09
55550;BME280;41397;49.972;18.944;2023-03-25T11:06:33;100785.32;;;20.16;39.89
55550;BME280;41397;49.972;18.944;2023-03-25T11:09:35;100785.78;;;20.05;39.98
55550;BME280;41397;49.972;18.944;2023-03-25T11:12:42;100791.54;;;20.03;40.91
55550;BME280;41397;49.972;18.944;2023-03-25T11:15:47;100789.78;;;20.02;41.61
55550;BME280;41397;49.972;18.944;2023-03-25T11:18:52;100794.49;;;20.02;41.95
55550;BME280;41397;49.972;18.944;2023-03-25T11:22:02;100799.43;;;19.91;42.36
55550;BME280;41397;49.972;18.944;2023-03-25T11:31:40;100812.03;;;19.79;42.85
55550;BME280;41397;49.972;18.944;2023-03-25T11:34:46;100814.33;;;19.76;43.14
55550;BME280;41397;49.972;18.944;2023-03-25T11:37:54;100809.03;;;19.58;43.64
55550;BME280;41397;49.972;18.944;2023-03-25T11:40:57;100813.67;;;19.34;43.27
55550;BME280;41397;49.972;18.944;2023-03-25T11:44:00;100824.68;;;19.19;44.48
55550;BME280;41397;49.972;18.944;2023-03-25T11:47:07;100828.03;;;19.06;45.87
55550;BME280;41397;49.972;18.944;2023-03-25T11:50:19;100839.08;;;18.75;45.33
55550;BME280;41397;49.972;18.944;2023-03-25T11:53:24;100842.04;;;18.41;46.22
55550;BME280;41397;49.972;18.944;2023-03-25T11:56:33;100833.95;;;18.31;45.80
55550;BME280;41397;49.972;18.944;2023-03-25T11:59:47;100836.54;;;18.00;46.27
55550;BME280;41397;49.972;18.944;2023-03-25T12:03:02;100828.24;;;17.92;46.82
55550;BME280;41397;49.972;18.944;2023-03-25T12:09:18;100829.45;;;17.89;47.79
55550;BME280;41397;49.972;18.944;2023-03-25T12:12:31;100814.76;;;17.89;47.70
55550;BME280;41397;49.972;18.944;2023-03-25T12:15:40;100803.69;;;17.97;47.93
55550;BME280;41397;49.972;18.944;2023-03-25T12:18:54;100802.11;;;18.11;47.92
55550;BME280;41397;49.972;18.944;2023-03-25T12:22:50;100801.24;;;18.27;47.50
55550;BME280;41397;49.972;18.944;2023-03-25T12:25:21;100795.17;;;18.39;46.96
55550;BME280;41397;49.972;18.944;2023-03-25T12:44:50;100785.64;;;18.98;46.61
55550;BME280;41397;49.972;18.944;2023-03-25T12:48:03;100775.94;;;19.02;46.77
55550;BME280;41397;49.972;18.944;2023-03-25T13:07:23;100751.75;;;19.19;58.24
55550;BME280;41397;49.972;18.944;2023-03-25T13:10:32;100751.08;;;19.63;59.02
55550;BME280;41397;49.972;18.944;2023-03-25T13:13:37;100753.00;;;19.62;50.06
55550;BME280;41397;49.972;18.944;2023-03-25T13:16:41;100740.22;;;19.53;50.12
55550;BME280;41397;49.972;18.944;2023-03-25T13:19:45;100746.58;;;19.39;48.46
55550;BME280;41397;49.972;18.944;2023-03-25T13:22:51;100751.50;;;19.28;48.39
55550;BME280;41397;49.972;18.944;2023-03-25T13:32:31;100743.66;;;19.09;45.50
55550;BME280;41397;49.972;18.944;2023-03-25T13:35:44;100742.48;;;19.03;42.71
55550;BME280;41397;49.972;18.944;2023-03-25T13:38:53;100738.16;;;19.01;43.17
55550;BME280;41397;49.972;18.944;2023-03-25T13:42:09;100734.53;;;19.00;43.02
55550;BME280;41397;49.972;18.944;2023-03-25T13:45:18;100732.24;;;19.04;42.86
55550;BME280;41397;49.972;18.944;2023-03-25T13:48:26;100741.61;;;19.03;42.13
55550;BME280;41397;49.972;18.944;2023-03-25T13:51:31;100740.43;;;18.97;40.68
55550;BME280;41397;49.972;18.944;2023-03-25T14:14:21;100796.43;;;17.96;41.97
55550;BME280;41397;49.972;18.944;2023-03-25T14:17:25;100791.73;;;17.72;43.81
55550;BME280;41397;49.972;18.944;2023-03-25T14:20:35;100784.98;;;17.66;43.89
55550;BME280;41397;49.972;18.944;2023-03-25T14:27:19;100770.97;;;17.43;44.49
55550;BME280;41397;49.972;18.944;2023-03-25T14:30:28;100773.20;;;17.40;45.19
55550;BME280;41397;49.972;18.944;2023-03-25T14:46:34;100770.22;;;17.08;48.03
55550;BME280;41397;49.972;18.944;2023-03-25T14:49:51;100774.32;;;17.04;48.63
55550;BME280;41397;49.972;18.944;2023-03-25T14:53:04;100772.11;;;17.08;48.70
55550;BME280;41397;49.972;18.944;2023-03-25T14:56:14;100781.70;;;16.88;48.01
55550;BME280;41397;49.972;18.944;2023-03-25T14:59:20;100789.64;;;16.91;48.13
55550;BME280;41397;49.972;18.944;2023-03-25T15:02:27;100796.55;;;16.86;48.13
55550;BME280;41397;49.972;18.944;2023-03-25T15:05:31;100800.88;;;16.89;49.23
55550;BME280;41397;49.972;18.944;2023-03-25T15:08:39;100790.80;;;16.80;49.95
55550;BME280;41397;49.972;18.944;2023-03-25T15:11:44;100789.98;;;16.88;50.73
55550;BME280;41397;49.972;18.944;2023-03-25T15:41:41;100783.49;;;17.13;49.41
55550;BME280;41397;49.972;18.944;2023-03-25T15:48:09;100764.68;;;17.08;49.40
55550;BME280;41397;49.972;18.944;2023-03-25T15:57:53;100779.70;;;17.06;48.85
55550;BME280;41397;49.972;18.944;2023-03-25T16:10:48;100776.02;;;16.89;46.85
55550;BME280;41397;49.972;18.944;2023-03-25T16:20:35;100754.66;;;16.65;46.86
55550;BME280;41397;49.972;18.944;2023-03-25T16:23:38;100761.37;;;16.62;47.11
55550;BME280;41397;49.972;18.944;2023-03-25T16:26:45;100768.09;;;16.60;47.28
55550;BME280;41397;49.972;18.944;2023-03-25T16:29:49;100772.90;;;16.58;47.45
55550;BME280;41397;49.972;18.944;2023-03-25T16:33:15;100774.43;;;16.52;47.52
55550;BME280;41397;49.972;18.944;2023-03-25T16:36:18;100767.18;;;16.51;47.62
55550;BME280;41397;49.972;18.944;2023-03-25T16:39:21;100775.80;;;16.48;47.94
55550;BME280;41397;49.972;18.944;2023-03-25T16:42:31;100782.33;;;16.47;48.04
55550;BME280;41397;49.972;18.944;2023-03-25T16:52:30;100792.46;;;16.38;48.50
55550;BME280;41397;49.972;18.944;2023-03-25T17:02:03;100816.78;;;16.35;48.80
55550;BME280;41397;49.972;18.944;2023-03-25T17:05:16;100815.80;;;16.18;48.64
55550;BME280;41397;49.972;18.944;2023-03-25T17:08:19;100819.63;;;16.25;48.55
55550;BME280;41397;49.972;18.944;2023-03-25T17:11:25;100819.81;;;16.24;48.59
55550;BME280;41397;49.972;18.944;2023-03-25T17:14:32;100822.05;;;16.28;48.71
55550;BME280;41397;49.972;18.944;2023-03-25T17:17:43;100827.77;;;16.27;48.47
55550;BME280;41397;49.972;18.944;2023-03-25T17:20:54;100834.14;;;16.27;48.41
55550;BME280;41397;49.972;18.944;2023-03-25T17:24:04;100834.28;;;16.26;48.47
55550;BME280;41397;49.972;18.944;2023-03-25T17:33:47;100842.80;;;16.32;49.04
55550;BME280;41397;49.972;18.944;2023-03-25T17:36:58;100838.85;;;16.35;48.96
55550;BME280;41397;49.972;18.944;2023-03-25T17:40:04;100836.95;;;16.35;49.03
55550;BME280;41397;49.972;18.944;2023-03-25T17:43:18;100840.58;;;16.36;49.30
55550;BME280;41397;49.972;18.944;2023-03-25T17:49:39;100830.40;;;16.36;49.29
55550;BME280;41397;49.972;18.944;2023-03-25T17:52:47;100831.29;;;16.37;49.26
55550;BME280;41397;49.972;18.944;2023-03-25T17:59:19;100834.34;;;16.34;49.43
55550;BME280;41397;49.972;18.944;2023-03-25T18:02:22;100829.00;;;16.32;49.33
55550;BME280;41397;49.972;18.944;2023-03-25T18:05:24;100840.52;;;16.28;49.57
55550;BME280;41397;49.972;18.944;2023-03-25T18:08:26;100837.23;;;16.24;49.85
55550;BME280;41397;49.972;18.944;2023-03-25T18:11:28;100838.73;;;16.18;49.66
55550;BME280;41397;49.972;18.944;2023-03-25T18:14:40;100842.29;;;16.11;49.45
55550;BME280;41397;49.972;18.944;2023-03-25T18:18:02;100841.19;;;16.04;49.56
55550;BME280;41397;49.972;18.944;2023-03-25T18:21:10;100840.66;;;16.00;49.73
55550;BME280;41397;49.972;18.944;2023-03-25T18:24:13;100838.36;;;15.95;49.66
55550;BME280;41397;49.972;18.944;2023-03-25T18:27:15;100841.30;;;15.94;49.49
55550;BME280;41397;49.972;18.944;2023-03-25T18:30:29;100842.01;;;15.96;49.28
55550;BME280;41397;49.972;18.944;2023-03-25T18:37:29;100833.02;;;15.94;49.67
55550;BME280;41397;49.972;18.944;2023-03-25T18:40:35;100848.86;;;15.92;50.01
55550;BME280;41397;49.972;18.944;2023-03-25T19:01:15;100858.16;;;15.73;51.06
55550;BME280;41397;49.972;18.944;2023-03-25T19:04:22;100864.27;;;15.67;51.40
55550;BME280;41397;49.972;18.944;2023-03-25T19:07:47;100866.48;;;15.63;51.52
55550;BME280;41397;49.972;18.944;2023-03-25T19:11:08;100859.85;;;15.56;51.63
55550;BME280;41397;49.972;18.944;2023-03-25T19:14:10;100863.24;;;15.50;51.76
55550;BME280;41397;49.972;18.944;2023-03-25T19:17:21;100856.46;;;15.44;51.64
55550;BME280;41397;49.972;18.944;2023-03-25T19:20:35;100852.45;;;15.39;52.06
55550;BME280;41397;49.972;18.944;2023-03-25T19:23:41;100844.77;;;15.32;52.57
55550;BME280;41397;49.972;18.944;2023-03-25T19:26:43;100837.00;;;15.28;52.68
55550;BME280;41397;49.972;18.944;2023-03-25T19:29:48;100839.35;;;15.23;52.77
55550;BME280;41397;49.972;18.944;2023-03-25T19:32:51;100840.84;;;15.17;53.09
55550;BME280;41397;49.972;18.944;2023-03-25T19:36:02;100841.28;;;15.13;53.23
55550;BME280;41397;49.972;18.944;2023-03-25T19:39:07;100843.49;;;15.09;53.38
55550;BME280;41397;49.972;18.944;2023-03-25T19:42:12;100832.78;;;15.06;53.38
55550;BME280;41397;49.972;18.944;2023-03-25T19:45:14;100831.48;;;15.00;53.69
55550;BME280;41397;49.972;18.944;2023-03-25T19:48:22;100819.77;;;14.98;53.79
55550;BME280;41397;49.972;18.944;2023-03-25T19:51:23;100827.77;;;14.92;53.92
55550;BME280;41397;49.972;18.944;2023-03-25T19:54:25;100828.07;;;14.88;53.65
55550;BME280;41397;49.972;18.944;2023-03-25T19:57:27;100833.16;;;14.83;53.71
55550;BME280;41397;49.972;18.944;2023-03-25T20:00:28;100830.73;;;14.80;53.74
55550;BME280;41397;49.972;18.944;2023-03-25T20:03:41;100833.91;;;14.76;54.08
55550;BME280;41397;49.972;18.944;2023-03-25T20:06:43;100838.16;;;14.70;53.69
55550;BME280;41397;49.972;18.944;2023-03-25T20:09:45;100841.38;;;14.65;53.85
55550;BME280;41397;49.972;18.944;2023-03-25T20:12:48;100845.43;;;14.61;53.53
55550;BME280;41397;49.972;18.944;2023-03-25T20:15:50;100843.70;;;14.51;52.67
55550;BME280;41397;49.972;18.944;2023-03-25T20:18:51;100847.91;;;14.45;51.73